Time;durP1;ratioP1;P1;durP2;ratioP2;P2;SDS_P1;SDS_P2;PMS_P1;PMS_P2;Temp;Humidity;BMP_temperature;BMP_pressure;BME280_temperature;BME280_humidity;BME280_pressure;Samples;Min_cycle;Max_cycle;Signal;HPM_P1;HPM_P2
2023/02/17 00:01:11;;;;;;;36.78;16.42;;;;;;;8.44;100.00;101940.44;4980882;28;20046;-73
2023/02/17 00:03:36;;;;;;;30.63;15.40;;;;;;;8.42;100.00;101936.97;4983432;28;20040;-73
2023/02/17 00:06:07;;;;;;;33.42;15.95;;;;;;;8.43;100.00;101936.09;4996208;28;20057;-73
2023/02/17 00:08:33;;;;;;;29.83;14.13;;;;;;;8.42;100.00;101935.25;4979406;28;20049;-73
2023/02/17 00:10:58;;;;;;;33.72;14.98;;;;;;;8.43;100.00;101938.72;4979255;28;20109;-73
2023/02/17 00:13:24;;;;;;;34.92;14.60;;;;;;;8.40;100.00;101930.88;4993318;28;20043;-73
2023/02/17 00:15:50;;;;;;;39.58;14.43;;;;;;;8.36;100.00;101934.44;4976564;28;20073;-73
2023/02/17 00:18:15;;;;;;;34.95;14.60;;;;;;;8.34;100.00;101942.28;4974002;28;20093;-73
2023/02/17 00:20:40;;;;;;;34.33;13.15;;;;;;;8.27;100.00;101951.06;4983699;28;20045;-73
2023/02/17 00:23:06;;;;;;;47.63;15.05;;;;;;;8.21;100.00;101946.81;4992529;28;20035;-73
2023/02/17 00:25:31;;;;;;;44.00;14.73;;;;;;;8.17;100.00;101947.72;4987260;28;20042;-73
2023/02/17 00:27:56;;;;;;;36.88;14.30;;;;;;;8.16;100.00;101939.91;4981100;28;20046;-73
2023/02/17 00:30:22;;;;;;;45.30;16.58;;;;;;;8.14;100.00;101936.47;4981215;28;20057;-73
2023/02/17 00:32:47;;;;;;;44.67;15.80;;;;;;;8.13;100.00;101929.50;4986055;28;20105;-73
2023/02/17 00:35:13;;;;;;;43.35;17.70;;;;;;;8.10;100.00;101934.78;4996691;28;20072;-73
2023/02/17 00:37:39;;;;;;;51.05;18.92;;;;;;;8.05;100.00;101925.25;4984416;28;20065;-72
2023/02/17 00:40:05;;;;;;;45.85;17.55;;;;;;;8.06;100.00;101928.75;4990509;28;20030;-72
2023/02/17 00:42:31;;;;;;;49.28;18.67;;;;;;;8.06;100.00;101929.59;4987513;28;20310;-72
2023/02/17 00:44:56;;;;;;;45.60;19.05;;;;;;;8.00;100.00;101929.66;4989181;28;20054;-73
2023/02/17 00:47:22;;;;;;;46.35;18.55;;;;;;;8.00;100.00;101921.84;5006010;28;20380;-73
2023/02/17 00:49:47;;;;;;;35.20;16.17;;;;;;;8.02;100.00;101914.88;4983018;28;20364;-73
2023/02/17 00:52:13;;;;;;;44.63;17.38;;;;;;;8.03;100.00;101920.97;4982871;28;20053;-72
2023/02/17 00:54:39;;;;;;;45.78;17.67;;;;;;;8.03;100.00;101916.59;4985251;28;20061;-72
2023/02/17 00:57:05;;;;;;;42.72;16.75;;;;;;;8.04;100.00;101922.66;4998240;28;20038;-73
2023/02/17 00:59:30;;;;;;;46.63;16.70;;;;;;;8.00;100.00;101915.75;4981575;28;20038;-73
2023/02/17 01:01:55;;;;;;;43.42;16.20;;;;;;;7.97;100.00;101913.22;4989001;28;20086;-72
2023/02/17 01:04:21;;;;;;;47.83;16.50;;;;;;;7.94;100.00;101921.06;4991481;28;20046;-73
2023/02/17 01:06:46;;;;;;;53.35;18.40;;;;;;;7.91;100.00;101924.56;4987121;28;20057;-72
2023/02/17 01:09:13;;;;;;;47.72;18.90;;;;;;;7.89;100.00;101928.94;4988798;28;20066;-72
2023/02/17 01:11:39;;;;;;;59.72;20.45;;;;;;;7.86;100.00;101922.03;5000754;28;20303;-72
2023/02/17 01:14:05;;;;;;;65.20;20.10;;;;;;;7.85;100.00;101928.09;4997733;28;20061;-73
2023/02/17 01:16:35;;;;;;;52.95;18.42;;;;;;;7.86;100.00;101935.06;4987186;28;20051;-73
2023/02/17 01:19:05;;;;;;;53.28;19.42;;;;;;;7.83;100.00;101935.09;4998829;28;20049;-73
2023/02/17 01:21:31;;;;;;;49.00;19.10;;;;;;;7.83;100.00;101935.09;4983690;28;20349;-73
2023/02/17 01:23:59;;;;;;;52.63;19.52;;;;;;;7.81;100.00;101933.41;5000961;28;20030;-73
2023/02/17 01:26:27;;;;;;;53.17;18.50;;;;;;;7.79;100.00;101936.03;4998471;28;20095;-73
2023/02/17 01:28:53;;;;;;;46.38;18.55;;;;;;;7.77;100.00;101927.34;4987761;28;20338;-73
2023/02/17 01:31:20;;;;;;;49.63;19.83;;;;;;;7.78;100.00;101920.38;4994501;28;20269;-73
2023/02/17 01:33:45;;;;;;;42.92;17.05;;;;;;;7.79;100.00;101907.34;4991575;28;20122;-73
2023/02/17 01:36:16;;;;;;;48.80;19.13;;;;;;;7.81;100.00;101894.28;4991193;28;20425;-73
2023/02/17 01:38:41;;;;;;;43.70;18.10;;;;;;;7.81;100.00;101909.94;4990564;28;20060;-73
2023/02/17 01:41:08;;;;;;;44.67;18.83;;;;;;;7.81;100.00;101907.31;4996810;28;20333;-73
2023/02/17 01:43:34;;;;;;;46.20;17.88;;;;;;;7.81;100.00;101908.16;4998343;28;20334;-73
2023/02/17 01:46:06;;;;;;;44.65;16.90;;;;;;;7.82;100.00;101902.09;5013589;28;20329;-73
2023/02/17 01:48:42;;;;;;;37.28;16.02;;;;;;;7.82;100.00;101894.25;4983873;28;20219;-73
2023/02/17 01:51:13;;;;;;;37.67;15.48;;;;;;;7.85;100.00;101895.97;4983053;28;20034;-73
2023/02/17 01:53:47;;;;;;;40.20;15.55;;;;;;;7.85;100.00;101898.56;4999582;28;20034;-73
2023/02/17 01:56:14;;;;;;;41.03;14.48;;;;;;;7.82;100.00;101896.88;4985279;28;20403;-73
2023/02/17 01:58:46;;;;;;;40.28;15.50;;;;;;;7.82;100.00;101899.47;4986306;28;20043;-73
2023/02/17 02:01:12;;;;;;;35.65;14.10;;;;;;;7.84;100.00;101894.22;4995245;28;20089;-73
2023/02/17 02:03:39;;;;;;;28.95;12.65;;;;;;;7.85;100.00;101885.53;4990346;28;20054;-73
2023/02/17 02:06:15;;;;;;;35.22;14.63;;;;;;;7.86;100.00;101895.09;4992544;28;20047;-73
2023/02/17 02:08:53;;;;;;;29.48;12.55;;;;;;;7.87;100.00;101881.16;4989715;28;20046;-73
2023/02/17 02:11:19;;;;;;;27.15;12.13;;;;;;;7.89;100.00;101871.56;4993019;28;20101;-73
2023/02/17 02:13:45;;;;;;;37.13;13.73;;;;;;;7.88;100.00;101865.47;4990549;28;20350;-72
2023/02/17 02:16:29;;;;;;;37.05;13.52;;;;;;;7.86;100.00;101869.00;4998085;28;20118;-72
2023/02/17 02:19:35;;;;;;;37.60;13.65;;;;;;;7.84;100.00;101862.91;4989139;28;20074;-72
2023/02/17 02:22:03;;;;;;;35.45;13.35;;;;;;;7.83;100.00;101877.72;4986426;28;20046;-73
2023/02/17 02:24:39;;;;;;;39.60;14.27;;;;;;;7.79;100.00;101872.56;4985621;28;20326;-73
2023/02/17 02:27:32;;;;;;;38.53;14.98;;;;;;;7.78;100.00;101863.00;4997085;28;20416;-73
2023/02/17 02:30:16;;;;;;;46.30;16.30;;;;;;;7.76;100.00;101865.63;4988446;28;20092;-73
2023/02/17 02:32:48;;;;;;;41.13;15.20;;;;;;;7.76;100.00;101855.22;4986905;28;20050;-72
2023/02/17 02:35:17;;;;;;;38.40;13.75;;;;;;;7.78;100.00;101858.66;4995374;28;20084;-73
2023/02/17 02:37:55;;;;;;;33.67;13.80;;;;;;;7.79;100.00;101869.97;4988002;28;20030;-73
2023/02/17 02:40:25;;;;;;;35.63;14.77;;;;;;;7.80;100.00;101856.03;4984152;28;20064;-73
2023/02/17 02:42:51;;;;;;;39.63;13.95;;;;;;;7.80;100.00;101856.03;4998296;28;20034;-73
2023/02/17 02:45:19;;;;;;;33.17;13.88;;;;;;;7.79;100.00;101849.97;4982770;28;20387;-72
2023/02/17 02:47:51;;;;;;;37.38;13.80;;;;;;;7.80;100.00;101859.50;4999378;28;20034;-72
2023/02/17 02:50:32;;;;;;;35.53;14.45;;;;;;;7.78;100.00;101853.44;4984049;28;20122;-72
2023/02/17 02:53:24;;;;;;;36.40;14.43;;;;;;;7.79;100.00;101842.13;4999280;28;20038;-72
2023/02/17 02:55:58;;;;;;;41.05;15.18;;;;;;;7.80;100.00;101850.81;4991702;28;20065;-72
2023/02/17 02:58:23;;;;;;;40.65;16.38;;;;;;;7.81;100.00;101842.13;4983940;28;20046;-72
2023/02/17 03:01:12;;;;;;;37.45;15.88;;;;;;;7.82;100.00;101843.81;4996268;28;20039;-72
2023/02/17 03:03:50;;;;;;;39.20;15.20;;;;;;;7.83;100.00;101829.91;4995359;28;20096;-73
2023/02/17 03:06:30;;;;;;;36.22;14.75;;;;;;;7.84;100.00;101815.97;4996897;28;20038;-73
2023/02/17 03:09:05;;;;;;;31.73;13.02;;;;;;;7.86;100.00;101814.25;5000431;28;20140;-73
2023/02/17 03:11:33;;;;;;;33.78;13.70;;;;;;;7.89;100.00;101808.97;4995901;28;20303;-73
2023/02/17 03:14:01;;;;;;;39.85;14.82;;;;;;;7.88;100.00;101792.47;4987832;28;20078;-73
2023/02/17 03:16:27;;;;;;;34.30;13.60;;;;;;;7.91;100.00;101804.56;4988372;28;20111;-73
2023/02/17 03:18:53;;;;;;;36.58;13.38;;;;;;;7.91;100.00;101799.38;4990910;28;20329;-73
2023/02/17 03:21:18;;;;;;;27.20;11.75;;;;;;;7.92;100.00;101806.31;4996685;28;20330;-73
2023/02/17 03:23:44;;;;;;;33.83;13.50;;;;;;;7.92;100.00;101805.47;4995780;28;20030;-73
2023/02/17 03:26:09;;;;;;;35.50;13.98;;;;;;;7.93;100.00;101800.22;4984833;28;20034;-73
2023/02/17 03:28:34;;;;;;;38.92;15.57;;;;;;;7.95;100.00;101797.56;4998750;28;20113;-73
2023/02/17 03:31:00;;;;;;;45.10;15.23;;;;;;;7.95;100.00;101792.34;4998277;28;20022;-73
2023/02/17 03:33:25;;;;;;;42.00;15.80;;;;;;;7.97;100.00;101799.28;4981850;28;20037;-73
2023/02/17 03:35:51;;;;;;;35.53;15.52;;;;;;;7.99;100.00;101805.34;4995234;28;20037;-72
2023/02/17 03:38:17;;;;;;;52.35;17.85;;;;;;;8.00;100.00;101799.22;4996825;28;20081;-72
2023/02/17 03:40:42;;;;;;;38.92;16.75;;;;;;;8.02;100.00;101794.00;4993141;28;20332;-72
2023/02/17 03:43:08;;;;;;;47.75;18.73;;;;;;;8.04;100.00;101802.66;4992071;28;20059;-72
2023/02/17 03:45:36;;;;;;;51.15;19.75;;;;;;;8.05;100.00;101815.69;4987931;28;20254;-73
2023/02/17 03:48:01;;;;;;;49.00;19.73;;;;;;;8.06;100.00;101800.91;4997267;28;20041;-73
2023/02/17 03:50:27;;;;;;;39.17;19.08;;;;;;;8.08;100.00;101806.97;4995278;28;20098;-73
2023/02/17 03:52:52;;;;;;;46.08;20.08;;;;;;;8.10;100.00;101813.03;4983936;28;20038;-73
2023/02/17 03:55:17;;;;;;;44.00;19.83;;;;;;;8.11;100.00;101811.25;4979499;28;20065;-73
2023/02/17 03:57:43;;;;;;;46.10;20.05;;;;;;;8.14;100.00;101819.06;4997352;28;20356;-73
2023/02/17 04:00:09;;;;;;;50.42;20.15;;;;;;;8.15;100.00;101810.31;4992462;28;20042;-73
2023/02/17 04:02:35;;;;;;;40.65;19.17;;;;;;;8.14;100.00;101816.44;4989499;28;20042;-73
2023/02/17 04:05:00;;;;;;;43.85;19.23;;;;;;;8.17;100.00;101819.03;4987931;28;20380;-73
2023/02/17 04:07:26;;;;;;;39.70;19.00;;;;;;;8.16;100.00;101812.91;4989652;28;20038;-73
2023/02/17 04:09:52;;;;;;;45.22;18.77;;;;;;;8.17;100.00;101809.44;4987147;28;20030;-73
2023/02/17 04:12:17;;;;;;;47.63;19.70;;;;;;;8.17;100.00;101804.22;5010396;28;20042;-73
2023/02/17 04:14:43;;;;;;;45.67;18.70;;;;;;;8.18;100.00;101816.34;4998603;28;20207;-73
2023/02/17 04:17:08;;;;;;;47.45;18.67;;;;;;;8.20;100.00;101816.34;4995943;28;20046;-73
2023/02/17 04:19:34;;;;;;;38.40;18.95;;;;;;;8.20;100.00;101814.59;4984186;28;20360;-73
2023/02/17 04:21:59;;;;;;;45.28;19.48;;;;;;;8.21;100.00;101818.94;4983943;28;20038;-72
2023/02/17 04:24:25;;;;;;;55.15;20.42;;;;;;;8.22;100.00;101818.06;4994049;28;20050;-72
2023/02/17 04:26:50;;;;;;;52.17;20.27;;;;;;;8.23;100.00;101813.69;4987449;28;20130;-73
2023/02/17 04:29:15;;;;;;;45.83;19.90;;;;;;;8.23;100.00;101809.31;4989860;28;20105;-72
2023/02/17 04:31:41;;;;;;;53.83;21.98;;;;;;;8.22;100.00;101812.84;4988583;28;20043;-73
2023/02/17 04:34:06;;;;;;;58.50;21.40;;;;;;;8.24;100.00;101808.47;4985425;28;20110;-73
2023/02/17 04:36:32;;;;;;;50.78;21.63;;;;;;;8.24;100.00;101799.75;4995358;28;20342;-73
2023/02/17 04:38:57;;;;;;;55.20;20.23;;;;;;;8.24;100.00;101808.47;4997585;28;20347;-72
2023/02/17 04:41:23;;;;;;;50.47;21.85;;;;;;;8.24;100.00;101787.59;4993787;28;20045;-72
2023/02/17 04:43:48;;;;;;;54.65;21.70;;;;;;;8.26;100.00;101772.75;4992161;28;20101;-72
2023/02/17 04:46:14;;;;;;;59.10;23.48;;;;;;;8.26;100.00;101771.91;4996112;28;20042;-72
2023/02/17 04:48:39;;;;;;;54.45;22.10;;;;;;;8.27;100.00;101777.06;4984118;28;20038;-72
2023/02/17 04:51:05;;;;;;;56.72;21.08;;;;;;;8.27;100.00;101784.91;4990119;28;20337;-73
2023/02/17 04:53:30;;;;;;;58.47;21.25;;;;;;;8.30;100.00;101794.44;4989314;28;20120;-73
2023/02/17 04:55:56;;;;;;;48.42;20.00;;;;;;;8.30;100.00;101815.31;4991136;28;20392;-73
2023/02/17 04:58:21;;;;;;;61.75;21.48;;;;;;;8.34;100.00;101803.09;4992650;28;20222;-73
2023/02/17 05:00:48;;;;;;;56.03;20.30;;;;;;;8.35;100.00;101812.63;4984071;28;20038;-73
2023/02/17 05:03:13;;;;;;;63.20;20.98;;;;;;;8.38;100.00;101821.28;4996629;28;20061;-72
2023/02/17 05:05:39;;;;;;;61.97;21.42;;;;;;;8.38;100.00;101807.38;4980005;28;20050;-72
2023/02/17 05:08:04;;;;;;;53.70;20.38;;;;;;;8.38;100.00;101802.16;4983293;28;20042;-72
2023/02/17 05:10:29;;;;;;;56.85;20.08;;;;;;;8.38;100.00;101803.00;4981262;28;20110;-72
2023/02/17 05:12:55;;;;;;;58.65;21.75;;;;;;;8.39;100.00;101803.88;4992135;28;20030;-72
2023/02/17 05:15:20;;;;;;;55.45;21.92;;;;;;;8.38;100.00;101807.38;4987083;28;20034;-72
2023/02/17 05:17:45;;;;;;;51.20;21.33;;;;;;;8.38;100.00;101800.38;4988618;28;20038;-72
2023/02/17 05:20:11;;;;;;;59.88;22.27;;;;;;;8.39;100.00;101798.66;4990457;28;20161;-72
2023/02/17 05:22:37;;;;;;;58.53;22.33;;;;;;;8.38;100.00;101803.00;4989612;28;20030;-72
2023/02/17 05:25:03;;;;;;;59.13;21.83;;;;;;;8.39;100.00;101785.63;4995942;28;20230;-72
2023/02/17 05:27:32;;;;;;;51.95;20.58;;;;;;;8.38;100.00;101782.13;4986333;28;20030;-72
2023/02/17 05:29:57;;;;;;;65.50;21.73;;;;;;;8.40;100.00;101779.47;4982596;28;20031;-72
2023/02/17 05:32:23;;;;;;;60.45;21.10;;;;;;;8.40;100.00;101789.94;4979308;28;20092;-72
2023/02/17 05:34:48;;;;;;;66.63;21.50;;;;;;;8.41;100.00;101773.41;4995164;28;20045;-72
2023/02/17 05:37:14;;;;;;;61.15;21.95;;;;;;;8.41;100.00;101770.78;4985102;28;20043;-72
2023/02/17 05:39:39;;;;;;;61.47;20.05;;;;;;;8.40;100.00;101746.44;4982797;28;20039;-72
2023/02/17 05:42:04;;;;;;;59.65;20.35;;;;;;;8.41;100.00;101758.59;4989408;28;20057;-72
2023/02/17 05:44:30;;;;;;;51.38;19.83;;;;;;;8.41;100.00;101753.38;4992406;28;20035;-72
2023/02/17 05:46:55;;;;;;;44.30;18.27;;;;;;;8.40;100.00;101741.22;4993133;28;20068;-72
2023/02/17 05:49:21;;;;;;;49.10;17.90;;;;;;;8.41;100.00;101757.72;4983831;28;20318;-72
2023/02/17 05:51:46;;;;;;;44.80;17.75;;;;;;;8.41;100.00;101742.91;4993210;28;20050;-72
2023/02/17 05:54:12;;;;;;;50.28;18.70;;;;;;;8.41;100.00;101747.28;4980659;28;20062;-72
2023/02/17 05:56:37;;;;;;;46.38;18.95;;;;;;;8.42;100.00;101749.03;4995964;28;20348;-72
2023/02/17 05:59:02;;;;;;;54.58;17.65;;;;;;;8.41;100.00;101750.75;4986621;28;20045;-72
2023/02/17 06:01:28;;;;;;;43.22;16.00;;;;;;;8.42;100.00;101739.47;4993795;28;20215;-72
2023/02/17 06:03:53;;;;;;;49.90;16.80;;;;;;;8.44;100.00;101744.63;4985732;28;20034;-72
2023/02/17 06:06:19;;;;;;;41.33;15.93;;;;;;;8.45;100.00;101760.28;4990346;28;20041;-72
2023/02/17 06:08:47;;;;;;;47.28;16.00;;;;;;;8.46;100.00;101745.50;4989540;28;20077;-72
2023/02/17 06:11:12;;;;;;;38.35;15.18;;;;;;;8.47;100.00;101746.34;4995981;28;20065;-72
2023/02/17 06:13:38;;;;;;;30.63;14.07;;;;;;;8.49;100.00;101736.75;4984481;28;20065;-72
2023/02/17 06:16:03;;;;;;;44.83;15.40;;;;;;;8.53;100.00;101754.94;4999721;28;20034;-72
2023/02/17 06:18:29;;;;;;;37.03;15.15;;;;;;;8.57;100.00;101742.69;4983162;28;20312;-72
2023/02/17 06:20:55;;;;;;;32.35;13.85;;;;;;;8.57;100.00;101751.38;4980070;28;20043;-72
2023/02/17 06:23:22;;;;;;;37.67;16.60;;;;;;;8.59;100.00;101753.97;4984890;28;20053;-72
2023/02/17 06:25:47;;;;;;;38.90;16.08;;;;;;;8.59;100.00;101754.81;4993150;28;20050;-72
2023/02/17 06:28:13;;;;;;;41.63;17.13;;;;;;;8.60;100.00;101748.72;4990274;28;20380;-72
2023/02/17 06:30:38;;;;;;;38.95;15.65;;;;;;;8.62;100.00;101733.00;4983819;28;20054;-72
2023/02/17 06:33:04;;;;;;;43.75;16.88;;;;;;;8.62;100.00;101744.34;4988411;28;20098;-72
2023/02/17 06:35:29;;;;;;;36.63;16.17;;;;;;;8.62;100.00;101741.72;4995522;28;20346;-72
2023/02/17 06:37:54;;;;;;;40.13;15.50;;;;;;;8.61;100.00;101719.09;4975520;28;20046;-72
2023/02/17 06:40:20;;;;;;;29.77;13.90;;;;;;;8.62;100.00;101720.84;4981610;28;20038;-72
2023/02/17 06:42:45;;;;;;;37.63;15.63;;;;;;;8.62;100.00;101727.78;4983827;28;20110;-72
2023/02/17 06:45:11;;;;;;;36.05;14.65;;;;;;;8.62;100.00;101726.06;4988734;28;20057;-72
2023/02/17 06:47:36;;;;;;;41.65;15.30;;;;;;;8.63;100.00;101739.97;4985583;28;20030;-72
2023/02/17 06:50:02;;;;;;;33.45;13.38;;;;;;;8.64;100.00;101728.63;4986440;28;20048;-72
2023/02/17 06:52:27;;;;;;;33.83;13.20;;;;;;;8.65;100.00;101739.03;4985628;28;20047;-72
2023/02/17 06:54:52;;;;;;;35.63;13.23;;;;;;;8.65;100.00;101739.03;4980520;28;20214;-72
2023/02/17 06:57:19;;;;;;;37.88;13.52;;;;;;;8.65;100.00;101744.25;4983577;28;20043;-72
2023/02/17 06:59:44;;;;;;;33.00;13.02;;;;;;;8.68;100.00;101734.66;4976474;28;20310;-72
2023/02/17 07:02:11;;;;;;;32.42;13.60;;;;;;;8.67;100.00;101739.00;4978264;28;20144;-72
2023/02/17 07:04:37;;;;;;;28.02;13.80;;;;;;;8.70;100.00;101745.94;4991373;28;20345;-72
2023/02/17 07:07:02;;;;;;;26.48;11.52;;;;;;;8.75;100.00;101744.97;4984521;28;20102;-72
2023/02/17 07:09:28;;;;;;;31.25;12.43;;;;;;;8.79;100.00;101748.38;4973950;28;20050;-72
2023/02/17 07:11:54;;;;;;;27.40;12.02;;;;;;;8.81;100.00;101741.38;4975893;28;20042;-72
2023/02/17 07:14:19;;;;;;;30.63;11.65;;;;;;;8.78;100.00;101757.94;4981885;28;20046;-72
2023/02/17 07:16:44;;;;;;;24.90;11.15;;;;;;;8.79;100.00;101748.38;4986719;28;20482;-72
2023/02/17 07:19:10;;;;;;;23.08;11.00;;;;;;;8.77;100.00;101763.22;4988232;28;20285;-72
2023/02/17 07:21:35;;;;;;;22.75;11.48;;;;;;;8.76;100.00;101766.72;4985463;28;20133;-72
2023/02/17 07:24:01;;;;;;;28.23;10.60;;;;;;;8.75;100.00;101767.59;4980523;28;20034;-72
2023/02/17 07:26:26;;;;;;;22.85;10.52;;;;;;;8.75;100.00;101741.47;4975312;28;20132;-72
2023/02/17 07:28:51;;;;;;;21.05;9.70;;;;;;;8.73;100.00;101745.88;4980558;28;20286;-72
2023/02/17 07:31:17;;;;;;;26.70;10.23;;;;;;;8.72;100.00;101754.63;4991976;28;20113;-72
2023/02/17 07:33:44;;;;;;;32.13;11.05;;;;;;;8.70;100.00;101746.81;4983223;28;20381;-72
2023/02/17 07:36:13;;;;;;;21.80;11.30;;;;;;;8.69;100.00;101762.50;4978699;28;20042;-72
2023/02/17 07:38:39;;;;;;;25.30;11.77;;;;;;;8.68;100.00;101763.38;4986781;28;20034;-72
2023/02/17 07:41:06;;;;;;;26.00;10.68;;;;;;;8.67;100.00;101749.47;4974377;28;20081;-72
2023/02/17 07:43:33;;;;;;;29.15;11.32;;;;;;;8.67;100.00;101749.47;4979672;28;20109;-72
2023/02/17 07:45:58;;;;;;;25.20;10.88;;;;;;;8.67;100.00;101740.78;4983022;28;20093;-72
2023/02/17 07:48:23;;;;;;;21.35;9.90;;;;;;;8.67;100.00;101756.44;4984051;28;20050;-72
2023/02/17 07:50:49;;;;;;;19.20;8.63;;;;;;;8.64;100.00;101753.00;4983538;28;20046;-72
2023/02/17 07:53:14;;;;;;;25.25;9.55;;;;;;;8.63;100.00;101756.50;4987961;28;20038;-72
2023/02/17 07:55:40;;;;;;;26.73;10.18;;;;;;;8.63;100.00;101766.09;4986932;28;20046;-72
2023/02/17 07:58:05;;;;;;;19.13;9.70;;;;;;;8.62;100.00;101765.22;4977354;28;20053;-72
2023/02/17 08:00:30;;;;;;;26.80;10.82;;;;;;;8.63;100.00;101771.31;4990441;28;20046;-72
2023/02/17 08:02:56;;;;;;;19.92;9.70;;;;;;;8.62;100.00;101765.22;4986323;28;20030;-72
2023/02/17 08:05:21;;;;;;;25.05;10.77;;;;;;;8.63;100.00;101774.75;4983694;28;20353;-72
2023/02/17 08:07:47;;;;;;;24.85;11.02;;;;;;;8.64;100.00;101767.78;4983286;28;20054;-72
2023/02/17 08:15:41;;;;;;;27.15;14.25;;;;;;;8.67;100.00;101800.84;4982922;28;20511;-72
2023/02/17 08:18:06;;;;;;;34.33;14.75;;;;;;;8.67;100.00;101793.84;4984915;28;20050;-72
2023/02/17 08:20:32;;;;;;;38.25;15.40;;;;;;;8.69;100.00;101778.16;4983877;28;20030;-72
2023/02/17 08:22:57;;;;;;;36.42;16.63;;;;;;;8.68;100.00;101782.53;4980274;28;20089;-72
2023/02/17 08:25:23;;;;;;;31.73;16.08;;;;;;;8.69;100.00;101789.47;4989166;28;20042;-72
2023/02/17 08:27:48;;;;;;;34.28;15.93;;;;;;;8.71;100.00;101786.81;4975066;28;20061;-72
2023/02/17 08:30:14;;;;;;;30.08;15.88;;;;;;;8.72;100.00;101796.41;4992541;28;20050;-72
2023/02/17 08:32:39;;;;;;;36.10;15.82;;;;;;;8.73;100.00;101793.75;4981982;28;20050;-72
2023/02/17 08:35:05;;;;;;;29.05;15.80;;;;;;;8.74;100.00;101789.41;4990625;28;20045;-72
2023/02/17 08:37:31;;;;;;;35.00;16.15;;;;;;;8.73;100.00;101795.50;4990908;28;20054;-72
2023/02/17 08:39:57;;;;;;;33.15;15.07;;;;;;;8.75;100.00;101806.78;4987097;28;20081;-72
2023/02/17 08:42:25;;;;;;;35.03;15.23;;;;;;;8.75;100.00;101789.38;4980676;28;20333;-72
2023/02/17 08:44:50;;;;;;;36.17;16.27;;;;;;;8.77;100.00;101807.63;4989735;28;20369;-72
2023/02/17 08:47:16;;;;;;;38.88;17.38;;;;;;;8.77;100.00;101821.53;4982124;28;20697;-72
2023/02/17 08:49:41;;;;;;;34.50;15.77;;;;;;;8.79;100.00;101806.72;4971752;28;20053;-72
2023/02/17 08:52:06;;;;;;;33.47;15.30;;;;;;;8.82;100.00;101831.91;4979111;28;20058;-72
2023/02/17 08:54:32;;;;;;;41.00;14.35;;;;;;;8.84;100.00;101817.94;4979046;28;20200;-72
2023/02/17 08:56:58;;;;;;;33.40;16.08;;;;;;;8.86;100.00;101811.81;4979432;28;20283;-72
2023/02/17 08:59:23;;;;;;;31.35;15.35;;;;;;;8.84;100.00;101794.44;4985330;28;20249;-72
2023/02/17 09:01:49;;;;;;;28.20;15.63;;;;;;;8.86;100.00;101809.19;4977574;28;20042;-72
2023/02/17 09:04:15;;;;;;;30.02;14.32;;;;;;;8.86;100.00;101803.97;4981182;28;20038;-72
2023/02/17 09:06:44;;;;;;;24.60;12.85;;;;;;;8.84;100.00;101807.50;4976457;28;20045;-72
2023/02/17 09:09:12;;;;;;;25.73;14.30;;;;;;;8.84;100.00;101807.50;4973747;28;20302;-72
2023/02/17 09:11:38;;;;;;;23.00;12.75;;;;;;;8.84;100.00;101801.38;4982694;28;20356;-72
2023/02/17 09:14:04;;;;;;;26.67;12.55;;;;;;;8.82;100.00;101798.81;4980358;28;20030;-72
2023/02/17 09:16:30;;;;;;;28.08;11.70;;;;;;;8.82;100.00;101838.00;4980003;28;20041;-72
2023/02/17 09:18:55;;;;;;;28.20;12.63;;;;;;;8.82;100.00;101818.84;4977817;28;20113;-72
2023/02/17 09:21:21;;;;;;;23.17;11.68;;;;;;;8.83;100.00;101815.34;4977131;28;20297;-72
2023/02/17 09:23:48;;;;;;;25.27;11.70;;;;;;;8.84;100.00;101841.44;4974582;28;20111;-72
2023/02/17 09:26:16;;;;;;;26.30;11.05;;;;;;;8.84;100.00;101820.56;4971297;28;20058;-72
2023/02/17 09:28:42;;;;;;;22.73;10.45;;;;;;;8.85;100.00;101821.41;4981629;28;20073;-72
2023/02/17 09:31:17;;;;;;;21.85;10.27;;;;;;;8.86;100.00;101807.47;4985132;28;20302;-72
2023/02/17 09:33:43;;;;;;;23.98;9.52;;;;;;;8.86;100.00;101810.09;4988150;28;20037;-72
2023/02/17 09:36:12;;;;;;;15.27;9.77;;;;;;;8.86;100.00;101815.31;4976114;28;20230;-72
2023/02/17 09:38:37;;;;;;;;;;;;;;;8.87;100.00;101801.34;4978286;28;20108;-72
2023/02/17 09:41:14;;;;;;;25.77;9.35;;;;;;;8.89;100.00;101803.94;4984439;28;19918;-72
2023/02/17 09:43:40;;;;;;;22.73;8.25;;;;;;;8.92;100.00;101832.63;4982962;28;20039;-72
2023/02/17 09:46:12;;;;;;;18.55;8.05;;;;;;;8.93;100.00;101819.53;4975999;28;20049;-72
2023/02/17 09:48:39;;;;;;;18.50;8.30;;;;;;;8.95;100.00;101830.81;4988519;28;20039;-72
2023/02/17 09:51:16;;;;;;;16.52;7.68;;;;;;;8.98;100.00;101824.66;4984441;28;20038;-72
2023/02/17 09:54:01;;;;;;;21.15;9.35;;;;;;;9.05;100.00;101843.72;4978382;28;20046;-72
2023/02/17 09:56:33;;;;;;;25.17;9.45;;;;;;;9.07;100.00;101841.91;4984538;28;20117;-72
2023/02/17 09:59:03;;;;;;;17.88;8.90;;;;;;;9.12;100.00;101827.88;4979502;28;20049;-72
2023/02/17 10:01:31;;;;;;;20.48;8.98;;;;;;;9.16;100.00;101852.19;4980973;28;20046;-72
2023/02/17 10:04:13;;;;;;;15.57;8.68;;;;;;;9.19;100.00;101844.31;4981013;28;20238;-72
2023/02/17 10:06:58;;;;;;;19.65;9.77;;;;;;;9.25;100.00;101856.41;4982343;28;20389;-72
2023/02/17 10:09:52;;;;;;;20.75;9.65;;;;;;;9.28;100.00;101861.56;4980194;28;20035;-72
2023/02/17 10:12:24;;;;;;;28.35;9.65;;;;;;;9.29;100.00;101878.97;4974492;28;20062;-72
2023/02/17 10:14:57;;;;;;;20.08;10.80;;;;;;;9.30;100.00;101868.50;4988536;28;20045;-72
2023/02/17 10:17:32;;;;;;;15.25;10.40;;;;;;;9.32;100.00;101873.69;4979697;28;20058;-72
2023/02/17 10:20:11;;;;;;;26.27;10.48;;;;;;;9.31;100.00;101887.66;4982726;28;20093;-72
2023/02/17 10:22:37;;;;;;;20.55;9.82;;;;;;;9.32;100.00;101860.63;4982448;28;20371;-72
2023/02/17 10:25:14;;;;;;;25.67;10.95;;;;;;;9.31;100.00;101858.88;4980809;28;20050;-72
2023/02/17 10:27:52;;;;;;;21.75;10.85;;;;;;;9.31;100.00;101854.50;4983150;28;20053;-72
2023/02/17 10:30:39;;;;;;;26.67;11.30;;;;;;;9.32;100.00;101863.25;4983064;28;20042;-72
2023/02/17 10:33:27;;;;;;;21.13;10.73;;;;;;;9.33;100.00;101865.81;4981623;28;20035;-72
2023/02/17 10:36:09;;;;;;;21.27;10.15;;;;;;;9.34;100.00;101890.22;4983053;28;20062;-72
2023/02/17 10:38:58;;;;;;;21.85;10.25;;;;;;;9.34;100.00;101871.91;4983892;28;20034;-72
2023/02/17 10:41:31;;;;;;;21.15;10.95;;;;;;;9.32;100.00;101866.72;4980059;28;20039;-77
2023/02/17 10:43:58;;;;;;;20.00;11.40;;;;;;;9.33;100.00;101891.97;4983197;28;20287;-72
2023/02/17 10:46:28;;;;;;;23.90;11.40;;;;;;;9.31;100.00;101885.03;4983924;28;20043;-72
2023/02/17 10:48:57;;;;;;;23.77;11.77;;;;;;;9.28;100.00;101899.03;4987770;28;20405;-72
2023/02/17 10:51:26;;;;;;;32.60;13.13;;;;;;;9.27;100.00;101889.44;4972910;28;20034;-72
2023/02/17 10:53:59;;;;;;;23.88;12.77;;;;;;;9.23;100.00;101906.09;4974473;28;20038;-72
2023/02/17 10:56:27;;;;;;;24.58;11.13;;;;;;;9.22;100.00;101909.56;4986168;28;20034;-72
2023/02/17 10:59:05;;;;;;;28.65;10.43;;;;;;;9.20;100.00;101885.22;4984799;28;20034;-72
2023/02/17 11:01:31;;;;;;;27.52;10.13;;;;;;;9.19;100.00;101909.66;4984506;28;20105;-72
2023/02/17 11:04:06;;;;;;;30.90;8.93;;;;;;;9.17;100.00;101943.66;4980231;28;20282;-72
2023/02/17 11:06:36;;;;;;;27.25;8.95;;;;;;;9.17;100.00;101914.06;4982438;28;20030;-72
2023/02/17 11:09:04;;;;;;;23.05;8.15;;;;;;;9.15;100.00;101950.66;4979145;28;20274;-72
2023/02/17 11:11:33;;;;;;;13.73;7.97;;;;;;;9.13;100.00;101889.72;4976147;28;20314;-72
2023/02/17 11:14:19;;;;;;;15.50;6.95;;;;;;;9.14;100.00;101877.50;4978591;28;20062;-72
2023/02/17 11:16:50;;;;;;;18.20;7.60;;;;;;;9.12;100.00;101874.06;4974594;28;20075;-72
2023/02/17 11:19:23;;;;;;;19.30;7.72;;;;;;;9.12;100.00;101887.13;4974147;28;20270;-72